Terminal Aerodrome Forecast
Issued by NWS

Home | Current Version | Previous Version | Text Only | Print | Product List | Glossary Off
Versions: 1 2 3 4 5 6 7 8 9 10 11 12 13 14 15 16 17

000
FTUS43 KGRB 191957 AAA
TAFRHI
TAF AMD
KRHI 191957Z 1920/2018 30007KT P6SM VCSH SCT035 OVC060
      TEMPO 1920/1924 4SM -RA
     FM200000 30006KT P6SM SCT030 BKN050
     FM201300 29007KT P6SM -SHRA SCT020 OVC030
     FM201600 29008KT P6SM VCSH BKN035 OVC050=

USA.gov is the U.S. government's official web portal to all federal, state and local government web resources and services.